createdAt,value
2022-11-12T00:00:32.164Z,47.70
2022-11-12T00:03:19.758Z,46.70
2022-11-12T00:06:06.629Z,49.80
2022-11-12T00:08:53.262Z,47.30
2022-11-12T00:11:40.249Z,45.00
2022-11-12T00:14:26.857Z,51.30
2022-11-12T00:17:13.616Z,55.50
2022-11-12T00:20:00.572Z,50.40
2022-11-12T00:22:47.655Z,50.40
2022-11-12T00:25:34.551Z,45.20
2022-11-12T00:28:21.245Z,51.00
2022-11-12T00:31:12.421Z,50.40
2022-11-12T00:33:59.153Z,50.10
2022-11-12T00:36:46.102Z,48.60
2022-11-12T00:39:33.241Z,53.10
2022-11-12T00:42:19.986Z,52.30
2022-11-12T00:45:07.128Z,51.10
2022-11-12T00:47:56.300Z,50.40
2022-11-12T00:50:43.108Z,56.90
2022-11-12T00:53:30.038Z,49.90
2022-11-12T00:56:16.893Z,48.80
2022-11-12T00:59:03.968Z,47.70
2022-11-12T01:01:50.609Z,45.90
2022-11-12T01:04:37.351Z,49.30
2022-11-12T01:07:23.995Z,51.20
2022-11-12T01:10:11.780Z,44.60
2022-11-12T01:12:58.653Z,44.40
2022-11-12T01:15:45.644Z,51.20
2022-11-12T01:18:32.341Z,47.40
2022-11-12T01:21:18.964Z,45.60
2022-11-12T01:24:05.924Z,51.30
2022-11-12T01:26:52.682Z,40.10
2022-11-12T01:29:39.424Z,51.10
2022-11-12T01:32:28.012Z,44.70
2022-11-12T01:35:15.065Z,44.60
2022-11-12T01:38:02.118Z,43.70
2022-11-12T01:40:48.695Z,46.00
2022-11-12T01:43:36.204Z,46.50
2022-11-12T01:46:29.054Z,41.80
2022-11-12T01:49:24.544Z,40.10
2022-11-12T01:52:21.314Z,41.80
2022-11-12T01:55:12.852Z,40.90
2022-11-12T01:58:14.677Z,42.40
2022-11-12T02:01:02.728Z,44.10
2022-11-12T02:03:49.812Z,43.80
2022-11-12T02:06:37.677Z,40.90
2022-11-12T02:09:26.201Z,41.90
2022-11-12T02:12:32.793Z,42.70
2022-11-12T02:15:19.340Z,37.90
2022-11-12T02:18:06.624Z,43.40
2022-11-12T02:21:03.446Z,38.60
2022-11-12T02:24:13.800Z,45.00
2022-11-12T02:27:01.053Z,39.20
2022-11-12T02:29:48.087Z,42.90
2022-11-12T02:32:34.793Z,38.60
2022-11-12T02:35:21.765Z,39.40
2022-11-12T02:38:09.478Z,36.50
2022-11-12T02:40:56.613Z,38.40
2022-11-12T02:43:43.821Z,39.40
2022-11-12T02:46:30.582Z,39.10
2022-11-12T02:49:17.197Z,41.50
2022-11-12T02:52:05.146Z,44.10
2022-11-12T02:54:52.055Z,39.40
2022-11-12T02:57:40.288Z,42.20
2022-11-12T03:00:26.982Z,38.00
2022-11-12T03:03:13.481Z,37.20
2022-11-12T03:06:01.584Z,38.30
2022-11-12T03:08:48.429Z,40.00
2022-11-12T03:11:35.341Z,38.30
2022-11-12T03:14:22.081Z,38.90
2022-11-12T03:17:08.835Z,41.10
2022-11-12T03:19:55.684Z,37.50
2022-11-12T03:22:42.823Z,40.90
2022-11-12T03:25:29.819Z,35.40
2022-11-12T03:28:17.617Z,37.10
2022-11-12T03:31:04.707Z,35.40
2022-11-12T03:33:51.589Z,37.40
2022-11-12T03:36:38.585Z,41.10
2022-11-12T03:39:25.113Z,36.60
2022-11-12T03:42:11.959Z,33.80
2022-11-12T03:44:58.869Z,35.00
2022-11-12T03:47:47.737Z,38.30
2022-11-12T03:50:34.508Z,36.50
2022-11-12T03:53:21.795Z,36.40
2022-11-12T03:56:08.505Z,36.30
2022-11-12T03:58:55.476Z,36.00
2022-11-12T04:01:42.327Z,34.90
2022-11-12T04:04:49.473Z,35.60
2022-11-12T04:07:54.977Z,38.80
2022-11-12T04:10:41.687Z,34.50
2022-11-12T04:13:29.369Z,37.20
2022-11-12T04:16:37.887Z,31.80
2022-11-12T04:19:43.330Z,38.00
2022-11-12T04:22:30.240Z,39.70
2022-11-12T04:25:35.881Z,37.40
2022-11-12T04:28:22.967Z,34.90
2022-11-12T04:31:09.832Z,33.10
2022-11-12T04:34:16.862Z,37.80
2022-11-12T04:37:06.365Z,30.80
2022-11-12T04:39:54.105Z,32.20
2022-11-12T04:42:59.588Z,33.80
2022-11-12T04:45:50.080Z,31.20
2022-11-12T04:48:36.973Z,33.40
2022-11-12T04:51:42.403Z,34.10
2022-11-12T04:54:29.272Z,31.70
2022-11-12T04:57:15.959Z,29.00
2022-11-12T05:00:03.702Z,33.00
2022-11-12T05:02:51.429Z,31.70
2022-11-12T05:05:38.269Z,34.30
2022-11-12T05:08:25.377Z,32.70
2022-11-12T05:11:13.087Z,29.50
2022-11-12T05:14:00.092Z,31.20
2022-11-12T05:16:47.065Z,29.30
2022-11-12T05:19:35.146Z,28.80
2022-11-12T05:22:42.570Z,36.50
2022-11-12T05:25:28.776Z,31.50
2022-11-12T05:28:15.535Z,31.60
2022-11-12T05:31:02.535Z,31.70
2022-11-12T05:33:49.495Z,31.50
2022-11-12T05:36:36.288Z,30.20
2022-11-12T05:39:23.486Z,29.60
2022-11-12T05:42:13.887Z,26.70
2022-11-12T05:45:01.504Z,32.10
2022-11-12T05:47:48.231Z,29.50
2022-11-12T05:50:45.264Z,29.40
2022-11-12T05:53:42.548Z,32.00
2022-11-12T05:56:29.954Z,27.20
2022-11-12T05:59:16.817Z,24.90
2022-11-12T06:02:03.469Z,31.10
2022-11-12T06:04:50.470Z,30.40
2022-11-12T06:07:37.265Z,34.00
2022-11-12T06:10:24.275Z,31.90
2022-11-12T06:13:11.310Z,30.80
2022-11-12T06:15:58.737Z,31.80
2022-11-12T06:18:45.632Z,29.20
2022-11-12T06:21:32.391Z,31.20
2022-11-12T06:24:19.606Z,33.30
2022-11-12T06:27:06.176Z,32.50
2022-11-12T06:29:53.066Z,27.90
2022-11-12T06:32:40.175Z,32.30
2022-11-12T06:35:27.032Z,32.40
2022-11-12T06:38:14.038Z,33.10
2022-11-12T06:41:01.310Z,35.70
2022-11-12T06:43:48.587Z,36.00
2022-11-12T06:46:35.236Z,32.00
2022-11-12T06:49:22.301Z,36.20
2022-11-12T06:52:13.644Z,36.10
2022-11-12T06:55:03.816Z,38.80
2022-11-12T06:57:54.051Z,31.80
2022-11-12T07:00:40.655Z,37.40
2022-11-12T07:03:27.461Z,32.90
2022-11-12T07:06:19.306Z,32.90
2022-11-12T07:09:06.584Z,36.90
2022-11-12T07:11:53.519Z,39.80
2022-11-12T07:14:40.319Z,52.90
2022-11-12T07:17:27.011Z,56.10
2022-11-12T07:20:13.815Z,42.50
2022-11-12T07:23:01.571Z,42.30
2022-11-12T07:25:55.725Z,59.50
2022-11-12T07:28:43.150Z,40.70
2022-11-12T07:31:29.970Z,41.60
2022-11-12T07:34:16.622Z,40.90
2022-11-12T07:37:03.241Z,58.10
2022-11-12T07:39:50.738Z,47.50
2022-11-12T07:42:37.385Z,52.60
2022-11-12T07:45:24.283Z,45.20
2022-11-12T07:48:11.366Z,49.80
2022-11-12T07:51:04.693Z,41.60
2022-11-12T07:53:59.009Z,39.20
2022-11-12T07:56:46.253Z,35.90
2022-11-12T07:59:33.257Z,34.40
2022-11-12T08:02:19.963Z,31.20
2022-11-12T08:05:14.471Z,31.50
2022-11-12T08:08:04.839Z,30.30
2022-11-12T08:10:55.767Z,30.90
2022-11-12T08:13:42.562Z,32.20
2022-11-12T08:16:29.982Z,28.10
2022-11-12T08:19:16.773Z,29.00
2022-11-12T08:22:06.095Z,27.50
2022-11-12T08:24:53.176Z,24.00
2022-11-12T08:27:39.806Z,23.10
2022-11-12T08:30:28.295Z,23.20
2022-11-12T08:33:15.112Z,21.30
2022-11-12T08:36:06.489Z,27.50
2022-11-12T08:38:54.278Z,26.40
2022-11-12T08:41:41.347Z,23.40
2022-11-12T08:44:28.132Z,23.50
2022-11-12T08:47:14.987Z,23.00
2022-11-12T08:50:01.978Z,24.30
2022-11-12T08:52:48.865Z,25.40
2022-11-12T08:55:35.956Z,25.40
2022-11-12T08:58:23.899Z,23.50
2022-11-12T09:01:11.278Z,20.80
2022-11-12T09:03:58.160Z,24.60
2022-11-12T09:06:46.723Z,21.60
2022-11-12T09:09:36.739Z,23.40
2022-11-12T09:12:24.221Z,26.50
2022-11-12T09:18:18.745Z,26.70
2022-11-12T09:21:08.727Z,25.60
2022-11-12T09:23:56.054Z,28.30
2022-11-12T09:26:42.809Z,22.90
2022-11-12T09:29:29.581Z,25.70
2022-11-12T09:32:16.188Z,27.10
2022-11-12T09:35:02.911Z,26.20
2022-11-12T09:37:49.603Z,25.20
2022-11-12T09:40:51.571Z,20.90
2022-11-12T09:43:47.704Z,30.20
2022-11-12T09:46:59.521Z,23.40
2022-11-12T09:50:12.602Z,25.00
2022-11-12T09:53:11.754Z,27.90
2022-11-12T09:55:59.086Z,23.50
2022-11-12T09:58:49.056Z,23.60
2022-11-12T10:01:54.197Z,25.00
2022-11-12T10:05:05.260Z,26.10
2022-11-12T10:08:20.447Z,25.40
2022-11-12T10:11:07.085Z,23.60
2022-11-12T10:14:13.973Z,25.40
2022-11-12T10:17:19.520Z,27.10
2022-11-12T10:20:15.206Z,22.50
2022-11-12T10:26:12.759Z,24.10
2022-11-12T10:29:11.408Z,25.60
2022-11-12T10:32:01.823Z,23.30
2022-11-12T10:34:48.308Z,22.80
2022-11-12T10:38:01.565Z,20.80
2022-11-12T10:40:48.364Z,22.20
2022-11-12T10:43:34.864Z,22.20
2022-11-12T10:46:24.861Z,22.40
2022-11-12T10:49:14.503Z,19.80
2022-11-12T10:52:01.122Z,20.60
2022-11-12T10:54:53.938Z,17.80
2022-11-12T10:57:42.068Z,18.70
2022-11-12T11:00:29.636Z,17.90
2022-11-12T11:03:21.106Z,14.00
2022-11-12T11:06:21.721Z,21.40
2022-11-12T11:09:21.600Z,17.70
2022-11-12T11:12:26.376Z,17.70
2022-11-12T11:15:16.206Z,13.90
2022-11-12T11:18:03.059Z,18.00
2022-11-12T11:21:06.610Z,18.10
2022-11-12T11:24:16.342Z,15.90
2022-11-12T11:27:30.624Z,16.50
2022-11-12T11:30:20.734Z,17.60
2022-11-12T11:33:24.151Z,13.60
2022-11-12T11:36:29.216Z,14.30
2022-11-12T11:39:30.639Z,17.20
2022-11-12T11:42:25.334Z,15.10
2022-11-12T11:45:35.453Z,16.20
2022-11-12T11:48:51.832Z,13.50
2022-11-12T11:51:57.098Z,15.00
2022-11-12T11:55:05.296Z,13.80
2022-11-12T11:57:58.206Z,15.80
2022-11-12T12:00:51.158Z,11.60
2022-11-12T12:04:05.837Z,14.90
2022-11-12T12:06:55.537Z,14.20
2022-11-12T12:09:57.694Z,13.20
2022-11-12T12:13:07.840Z,19.90
2022-11-12T12:16:06.655Z,15.10
2022-11-12T12:19:23.285Z,16.60
2022-11-12T12:22:15.305Z,16.70
2022-11-12T12:25:15.301Z,17.60
2022-11-12T12:28:07.589Z,18.60
2022-11-12T12:31:01.185Z,13.50
2022-11-12T12:33:58.717Z,11.50
2022-11-12T12:36:50.055Z,16.50
2022-11-12T12:39:58.905Z,16.60
2022-11-12T12:42:51.009Z,16.60
2022-11-12T12:45:42.494Z,15.80
2022-11-12T12:48:36.292Z,15.10
2022-11-12T12:51:24.650Z,16.10
2022-11-12T12:54:39.568Z,8.60
2022-11-12T12:57:37.492Z,11.50
2022-11-12T13:00:29.411Z,13.20
2022-11-12T13:03:45.035Z,17.00
2022-11-12T13:06:41.031Z,14.60
2022-11-12T13:09:29.026Z,13.40
2022-11-12T13:12:17.648Z,9.80
2022-11-12T13:15:15.866Z,12.60
2022-11-12T13:18:02.617Z,14.50
2022-11-12T13:21:11.349Z,14.90
2022-11-12T13:24:06.708Z,15.70
2022-11-12T13:29:44.208Z,14.10
2022-11-12T13:32:38.167Z,18.00
2022-11-12T13:35:36.398Z,15.50
2022-11-12T13:38:23.956Z,12.20
2022-11-12T13:41:43.115Z,14.90
2022-11-12T13:44:30.084Z,15.40
2022-11-12T13:47:20.538Z,14.90
2022-11-12T13:50:09.851Z,13.80
2022-11-12T13:52:56.715Z,14.10
2022-11-12T13:55:51.405Z,12.40
2022-11-12T13:58:43.566Z,14.30
2022-11-12T14:01:31.903Z,17.30
2022-11-12T14:04:22.388Z,19.90
2022-11-12T14:07:27.321Z,25.90
2022-11-12T14:10:46.443Z,53.60
2022-11-12T14:14:01.591Z,56.50
2022-11-12T14:17:03.513Z,37.00
2022-11-12T14:20:21.200Z,40.00
2022-11-12T14:23:21.526Z,29.60
2022-11-12T14:26:13.244Z,19.30
2022-11-12T14:28:59.950Z,23.40
2022-11-12T14:32:01.865Z,19.90
2022-11-12T14:34:48.903Z,25.30
2022-11-12T14:37:42.878Z,19.40
2022-11-12T14:40:34.043Z,20.30
2022-11-12T14:43:27.971Z,27.80
2022-11-12T14:46:37.277Z,27.40
2022-11-12T14:49:43.892Z,33.70
2022-11-12T14:52:35.437Z,34.00
2022-11-12T14:55:30.078Z,36.70
2022-11-12T14:58:18.612Z,37.90
2022-11-12T15:02:08.546Z,34.60
2022-11-12T15:04:42.842Z,33.70
2022-11-12T15:07:35.639Z,34.60
2022-11-12T15:10:31.659Z,40.50
2022-11-12T15:13:22.504Z,47.00
2022-11-12T15:16:11.540Z,42.90
2022-11-12T15:19:24.390Z,29.00
2022-11-12T15:22:21.050Z,30.60
2022-11-12T15:25:12.240Z,30.80
2022-11-12T15:28:25.635Z,32.00
2022-11-12T15:31:19.683Z,33.10
2022-11-12T15:34:31.240Z,39.30
2022-11-12T15:37:17.754Z,35.80
2022-11-12T15:40:15.868Z,43.20
2022-11-12T15:43:03.289Z,43.40
2022-11-12T15:45:51.759Z,46.20
2022-11-12T15:48:38.647Z,49.90
2022-11-12T15:51:25.570Z,56.40
2022-11-12T15:54:12.246Z,52.80
2022-11-12T15:56:59.366Z,50.20
2022-11-12T16:00:07.521Z,48.90
2022-11-12T16:03:05.940Z,52.70
2022-11-12T16:05:52.593Z,59.90
2022-11-12T16:08:39.372Z,53.60
2022-11-12T16:11:38.056Z,49.40
2022-11-12T16:14:25.232Z,65.90
2022-11-12T16:17:14.800Z,60.60
2022-11-12T16:20:01.506Z,52.20
2022-11-12T16:22:48.810Z,53.70
2022-11-12T16:25:38.208Z,48.80
2022-11-12T16:28:24.932Z,48.00
2022-11-12T16:31:11.879Z,48.40
2022-11-12T16:33:58.473Z,44.10
2022-11-12T16:36:47.317Z,54.90
2022-11-12T16:39:34.051Z,58.70
2022-11-12T16:42:20.600Z,72.20
2022-11-12T16:45:08.081Z,89.10
2022-11-12T16:47:55.681Z,89.30
2022-11-12T16:50:42.409Z,86.80
2022-11-12T16:53:29.519Z,98.20
2022-11-12T16:56:19.444Z,107.80
2022-11-12T16:59:06.427Z,88.60
2022-11-12T17:01:53.096Z,82.60
2022-11-12T17:04:39.846Z,91.30
2022-11-12T17:07:26.348Z,116.50
2022-11-12T17:10:13.106Z,93.70
2022-11-12T17:12:59.850Z,98.40
2022-11-12T17:15:46.554Z,109.80
2022-11-12T17:18:34.179Z,85.20
2022-11-12T17:21:21.186Z,109.70
2022-11-12T17:24:08.806Z,123.50
2022-11-12T17:26:55.765Z,99.80
2022-11-12T17:29:42.294Z,105.70
2022-11-12T17:32:29.142Z,104.80
2022-11-12T17:35:16.746Z,109.90
2022-11-12T17:38:04.028Z,99.00
2022-11-12T17:40:55.363Z,130.50
2022-11-12T17:43:41.956Z,115.70
2022-11-12T17:46:29.675Z,140.40
2022-11-12T17:49:16.891Z,165.10
2022-11-12T17:52:03.654Z,125.10
2022-11-12T17:54:50.492Z,112.30
2022-11-12T17:57:37.240Z,105.90
2022-11-12T18:00:23.760Z,104.00
2022-11-12T18:03:10.233Z,105.50
2022-11-12T18:05:58.687Z,121.40
2022-11-12T18:08:45.663Z,141.30
2022-11-12T18:11:44.512Z,156.20
2022-11-12T18:14:30.987Z,102.80
2022-11-12T18:17:17.816Z,98.90
2022-11-12T18:20:05.515Z,89.20
2022-11-12T18:22:52.116Z,89.50
2022-11-12T18:25:39.291Z,122.60
2022-11-12T18:28:25.901Z,149.70
2022-11-12T18:31:13.125Z,162.20
2022-11-12T18:33:59.542Z,156.10
2022-11-12T18:36:45.982Z,154.40
2022-11-12T18:39:33.367Z,155.30
2022-11-12T18:42:20.076Z,138.40
2022-11-12T18:45:07.278Z,141.60
2022-11-12T18:47:54.716Z,167.70
2022-11-12T18:50:41.295Z,209.70
2022-11-12T18:53:29.645Z,263.40
2022-11-12T18:56:20.115Z,280.70
2022-11-12T18:59:06.727Z,224.10
2022-11-12T19:01:53.371Z,174.10
2022-11-12T19:04:45.204Z,167.10
2022-11-12T19:07:32.181Z,150.30
2022-11-12T19:10:18.766Z,140.80
2022-11-12T19:13:06.691Z,140.60
2022-11-12T19:15:53.525Z,132.40
2022-11-12T19:18:41.611Z,124.90
2022-11-12T19:21:28.407Z,124.70
2022-11-12T19:24:15.481Z,114.00
2022-11-12T19:27:02.120Z,111.80
2022-11-12T19:29:50.359Z,105.00
2022-11-12T19:32:36.867Z,125.50
2022-11-12T19:35:24.770Z,123.70
2022-11-12T19:38:11.394Z,110.90
2022-11-12T19:41:10.588Z,110.20
2022-11-12T19:44:00.319Z,109.70
2022-11-12T19:46:47.114Z,97.90
2022-11-12T19:49:33.916Z,101.30
2022-11-12T19:52:22.437Z,100.90
2022-11-12T19:55:08.841Z,92.90
2022-11-12T19:57:56.502Z,100.30
2022-11-12T20:00:44.158Z,88.80
2022-11-12T20:03:32.411Z,100.70
2022-11-12T20:06:22.491Z,86.10
2022-11-12T20:09:10.188Z,84.00
2022-11-12T20:11:56.652Z,81.10
2022-11-12T20:14:43.376Z,81.60
2022-11-12T20:17:32.503Z,76.30
2022-11-12T20:20:20.757Z,66.70
2022-11-12T20:23:08.149Z,63.40
2022-11-12T20:26:05.440Z,58.60
2022-11-12T20:28:52.049Z,73.00
2022-11-12T20:31:42.119Z,81.40
2022-11-12T20:34:28.739Z,73.00
2022-11-12T20:37:15.242Z,74.00
2022-11-12T20:40:02.070Z,66.30
2022-11-12T20:42:51.908Z,67.00
2022-11-12T20:45:38.323Z,81.10
2022-11-12T20:48:25.325Z,82.70
2022-11-12T20:51:28.698Z,93.00
2022-11-12T20:54:16.214Z,90.80
2022-11-12T20:57:03.420Z,72.90
2022-11-12T20:59:51.735Z,70.30
2022-11-12T21:02:38.616Z,65.90
2022-11-12T21:05:25.406Z,66.30
2022-11-12T21:08:11.981Z,55.30
2022-11-12T21:11:01.034Z,60.40
2022-11-12T21:13:47.820Z,55.60
2022-11-12T21:16:34.937Z,58.70
2022-11-12T21:19:21.682Z,59.70
2022-11-12T21:22:08.261Z,57.40
2022-11-12T21:24:54.924Z,63.00
2022-11-12T21:27:41.561Z,66.40
2022-11-12T21:30:28.152Z,63.50
2022-11-12T21:33:14.695Z,62.20
2022-11-12T21:36:02.500Z,59.90
2022-11-12T21:38:49.925Z,61.50
2022-11-12T21:41:36.296Z,59.40
2022-11-12T21:44:23.230Z,55.60
2022-11-12T21:47:09.851Z,56.10
2022-11-12T21:49:56.337Z,58.70
2022-11-12T21:52:42.955Z,58.30
2022-11-12T21:55:29.556Z,56.70
2022-11-12T21:58:16.017Z,55.80
2022-11-12T22:01:13.104Z,58.70
2022-11-12T22:04:00.377Z,52.40
2022-11-12T22:06:47.339Z,56.10
2022-11-12T22:09:33.956Z,58.90
2022-11-12T22:12:20.859Z,61.30
2022-11-12T22:15:07.967Z,55.60
2022-11-12T22:17:54.979Z,57.10
2022-11-12T22:20:41.357Z,54.60
2022-11-12T22:23:28.248Z,62.80
2022-11-12T22:26:25.231Z,64.40
2022-11-12T22:29:11.820Z,65.20
2022-11-12T22:31:58.525Z,59.30
2022-11-12T22:34:49.320Z,61.60
2022-11-12T22:37:36.225Z,59.10
2022-11-12T22:40:23.087Z,64.10
2022-11-12T22:43:09.803Z,58.80
2022-11-12T22:45:56.447Z,61.30
2022-11-12T22:48:43.042Z,61.90
2022-11-12T22:51:31.672Z,61.30
2022-11-12T22:54:18.172Z,58.80
2022-11-12T22:57:04.792Z,53.70
2022-11-12T22:59:51.567Z,53.00
2022-11-12T23:02:40.319Z,56.10
2022-11-12T23:05:29.832Z,53.90
2022-11-12T23:08:16.547Z,49.30
2022-11-12T23:11:05.996Z,56.30
2022-11-12T23:13:53.794Z,50.00
2022-11-12T23:16:40.604Z,54.00
2022-11-12T23:19:27.581Z,58.10
2022-11-12T23:22:14.283Z,61.90
2022-11-12T23:25:01.024Z,55.00
2022-11-12T23:27:47.520Z,55.60
2022-11-12T23:30:35.058Z,57.60
2022-11-12T23:33:21.692Z,60.50
2022-11-12T23:36:09.812Z,53.00
2022-11-12T23:38:57.174Z,52.50
2022-11-12T23:41:44.072Z,60.00
2022-11-12T23:44:30.781Z,63.60
2022-11-12T23:47:17.683Z,56.70
2022-11-12T23:50:04.430Z,60.70
2022-11-12T23:52:50.976Z,57.60
2022-11-12T23:55:38.687Z,56.70
2022-11-12T23:58:25.669Z,56.60
